首页
METAR-TAF:

METAR-TAF

机场 :

佩鲁贾, 意大利

纬度: 43-05N, 经度: 012-30E, 海拔: 208米

当前天气观测

该预报发布于33分钟前的01:50 UTC
风速6节,风向北转东北
温度 16°C
湿度 88%
气压 1009 hPa
能见度10公里或以上

METAR: LIRZ 050150Z AUTO 03006KT 9999 FEW220/// 16/14 Q1009

时间: 04:23 (02:23 UTC)

预报

该预报发布于9小时和23分钟前的17:00 UTC
预报有效从04日的 18点(UTC)到 05日的 18点(UTC)
风速5节,风向多变
能见度10公里或以上
散云层高于4500英尺
短暂存在
从 04日的 18点(UTC)到 04日的 24点(UTC)
能見度: 4000
雷暴, 雨
成为
从 05日的 07点(UTC)到 05日的 09点(UTC)
风速15节,风向

TAF: LIRZ 041700Z 0418/0518 VRB05KT 9999 SCT045 TEMPO 0418/0424 4000 TSRA BECMG 0507/0509 01015KT

超过4000个机场的气象观测和天气预报(METAR&TAF报告)。

可查询的气象台以黄色和红色小点在地图上表示。

将鼠标移到小点上方,可查看气象台名称。

然后点击查看天气观测和预报。

如需切换地图:点击带黑十字的绿色按钮放大地图;点击带横线的绿色按钮缩小地图;或者点击绿色箭头查看邻近地区的地图。


METAR-TAF: